Time;durP1;ratioP1;P1;durP2;ratioP2;P2;SDS_P1;SDS_P2;PMS_P1;PMS_P2;Temp;Humidity;BMP_temperature;BMP_pressure;BME280_temperature;BME280_humidity;BME280_pressure;Samples;Min_cycle;Max_cycle;Signal;HPM_P1;HPM_P2
2023/02/21 02:15:14;;;;;;;87.53;50.22;;;9.80;99.90;;;;;;5081411;28;20031;-78
2023/02/21 02:17:55;;;;;;;84.85;45.05;;;9.90;99.90;;;;;;5078694;28;20028;-76
2023/02/21 02:20:51;;;;;;;84.90;45.78;;;9.90;99.90;;;;;;5083526;28;20035;-76
2023/02/21 02:23:48;;;;;;;93.07;47.95;;;9.90;99.90;;;;;;5079075;28;20126;-76
2023/02/21 02:26:29;;;;;;;82.22;46.15;;;9.90;99.90;;;;;;5081435;28;20024;-75
2023/02/21 02:29:08;;;;;;;71.35;37.85;;;10.00;99.90;;;;;;5074871;28;20036;-76
2023/02/21 02:31:58;;;;;;;82.07;45.28;;;10.00;99.90;;;;;;5075079;28;20359;-76
2023/02/21 02:34:38;;;;;;;92.45;49.97;;;9.90;99.90;;;;;;5076753;28;20020;-77
2023/02/21 02:37:22;;;;;;;91.65;49.17;;;9.90;99.90;;;;;;5074905;28;20474;-75
2023/02/21 02:40:06;;;;;;;73.72;39.28;;;9.90;99.90;;;;;;5072348;28;20070;-75
2023/02/21 02:42:56;;;;;;;83.50;45.33;;;9.90;99.90;;;;;;5077646;28;20700;-76
2023/02/21 02:45:28;;;;;;;100.25;49.00;;;9.90;99.90;;;;;;5068406;28;20031;-76
2023/02/21 02:48:02;;;;;;;87.32;45.90;;;9.90;99.90;;;;;;5083521;28;20040;-76
2023/02/21 02:50:29;;;;;;;86.22;47.88;;;9.80;99.90;;;;;;5077574;28;20506;-76
2023/02/21 02:53:01;;;;;;;82.85;44.47;;;9.90;99.90;;;;;;5072136;28;20089;-75
2023/02/21 02:55:48;;;;;;;93.28;47.63;;;9.90;99.90;;;;;;5078363;28;20682;-75
2023/02/21 02:58:15;;;;;;;92.95;46.45;;;9.80;99.90;;;;;;5079606;28;20066;-77
2023/02/21 03:00:47;;;;;;;96.55;49.40;;;9.90;99.90;;;;;;5087477;28;20031;-76
2023/02/21 03:03:44;;;;;;;89.18;45.92;;;9.90;99.90;;;;;;5085378;28;20028;-76
2023/02/21 03:06:31;;;;;;;104.18;53.78;;;9.90;99.90;;;;;;5078565;28;20025;-76
2023/02/21 03:09:10;;;;;;;115.45;55.67;;;9.90;99.90;;;;;;5076170;28;20073;-75
2023/02/21 03:11:52;;;;;;;110.47;50.15;;;9.90;99.90;;;;;;5084621;28;20039;-77
2023/02/21 03:14:22;;;;;;;99.03;46.88;;;9.90;99.90;;;;;;5074862;28;20419;-75
2023/02/21 03:16:54;;;;;;;95.80;46.13;;;9.90;99.90;;;;;;5077128;28;20036;-75
2023/02/21 03:19:26;;;;;;;108.75;53.70;;;9.90;99.90;;;;;;5083758;28;20065;-76
2023/02/21 03:22:04;;;;;;;100.65;46.13;;;9.90;99.90;;;;;;5079673;28;20025;-77
2023/02/21 03:24:31;;;;;;;95.82;46.20;;;9.90;99.90;;;;;;5077259;28;20111;-77
2023/02/21 03:27:01;;;;;;;92.30;44.88;;;9.90;99.90;;;;;;5083719;28;20108;-76
2023/02/21 03:29:27;;;;;;;92.03;46.33;;;9.90;99.90;;;;;;5079892;28;20020;-75
2023/02/21 03:34:41;;;;;;;81.57;41.47;;;9.80;99.90;;;;;;5084052;28;20035;-75
2023/02/21 03:37:09;;;;;;;85.68;41.05;;;9.80;99.90;;;;;;5090230;28;20047;-75
2023/02/21 03:39:34;;;;;;;90.30;42.38;;;9.80;99.90;;;;;;5088100;28;20039;-76
2023/02/21 03:42:00;;;;;;;68.85;34.33;;;9.80;99.90;;;;;;5089326;28;20028;-75
2023/02/21 03:44:26;;;;;;;59.25;30.90;;;9.70;99.90;;;;;;5074765;28;20025;-76
2023/02/21 03:46:53;;;;;;;83.65;40.22;;;9.80;99.90;;;;;;5087030;28;20391;-76
2023/02/21 03:49:19;;;;;;;77.63;36.67;;;9.80;99.90;;;;;;5075340;28;20044;-76
2023/02/21 03:51:44;;;;;;;79.82;40.03;;;9.80;99.90;;;;;;5081857;28;20029;-75
2023/02/21 03:54:10;;;;;;;79.93;43.45;;;9.80;99.90;;;;;;5090259;28;20061;-77
2023/02/21 03:56:35;;;;;;;71.85;35.45;;;9.80;99.90;;;;;;5079495;28;20097;-76
2023/02/21 03:59:02;;;;;;;77.40;38.50;;;9.70;99.90;;;;;;5082529;28;20032;-76
2023/02/21 04:01:28;;;;;;;79.63;39.95;;;9.70;99.90;;;;;;5080932;28;20032;-76
2023/02/21 04:03:53;;;;;;;83.53;40.72;;;9.70;99.90;;;;;;5082234;28;20020;-76
2023/02/21 04:06:19;;;;;;;100.63;48.55;;;9.70;99.90;;;;;;5080549;28;20110;-75
2023/02/21 04:08:45;;;;;;;101.88;50.38;;;9.70;99.90;;;;;;5076140;28;20146;-77
2023/02/21 04:11:10;;;;;;;83.63;39.67;;;9.80;99.90;;;;;;5074876;28;20028;-77
2023/02/21 04:13:36;;;;;;;59.60;32.28;;;9.70;99.90;;;;;;5073840;28;20099;-75
2023/02/21 04:16:01;;;;;;;97.53;47.53;;;9.80;99.90;;;;;;5084062;28;20057;-77
2023/02/21 04:18:27;;;;;;;95.57;47.80;;;9.70;99.90;;;;;;5073559;28;20042;-75
2023/02/21 04:20:53;;;;;;;98.28;44.85;;;9.70;99.90;;;;;;5076275;28;20577;-75
2023/02/21 04:23:20;;;;;;;100.88;49.63;;;9.70;99.90;;;;;;5082399;28;20100;-75
2023/02/21 04:25:46;;;;;;;87.55;43.85;;;9.70;99.90;;;;;;5089230;28;20020;-76
2023/02/21 04:28:12;;;;;;;84.70;43.65;;;9.70;99.90;;;;;;5084810;28;20089;-77
2023/02/21 04:30:38;;;;;;;84.50;41.67;;;9.70;99.90;;;;;;5076729;28;20056;-76
2023/02/21 04:33:03;;;;;;;88.38;44.65;;;9.60;99.90;;;;;;5078259;28;20661;-76
2023/02/21 04:35:30;;;;;;;95.65;46.75;;;9.60;99.90;;;;;;5078574;28;20025;-76
2023/02/21 04:37:55;;;;;;;88.43;40.13;;;9.60;99.90;;;;;;5076665;28;20033;-76
2023/02/21 04:40:21;;;;;;;94.47;44.60;;;9.60;99.90;;;;;;5075445;28;20024;-76
2023/02/21 04:42:47;;;;;;;92.55;44.17;;;9.60;99.90;;;;;;5089289;28;20066;-76
2023/02/21 04:45:13;;;;;;;109.18;46.30;;;9.60;99.90;;;;;;5075355;28;20059;-75
2023/02/21 04:47:38;;;;;;;97.13;47.47;;;9.50;99.90;;;;;;5080769;28;20032;-76
2023/02/21 04:50:04;;;;;;;88.22;41.97;;;9.50;99.90;;;;;;5084523;28;20032;-77
2023/02/21 04:52:30;;;;;;;95.78;43.88;;;9.50;99.90;;;;;;5074419;28;20028;-76
2023/02/21 04:54:56;;;;;;;107.38;50.45;;;9.60;99.90;;;;;;5084533;28;20030;-76
2023/02/21 04:57:22;;;;;;;104.38;46.10;;;9.50;99.90;;;;;;5078253;28;20115;-76
2023/02/21 04:59:48;;;;;;;95.97;44.25;;;9.50;99.90;;;;;;5080738;28;20022;-77
2023/02/21 05:02:13;;;;;;;106.63;47.53;;;9.60;99.90;;;;;;5076418;28;20016;-77
2023/02/21 05:04:41;;;;;;;97.07;45.38;;;9.60;99.90;;;;;;5084598;28;20024;-77
2023/02/21 05:07:07;;;;;;;98.45;48.30;;;9.60;99.90;;;;;;5082157;28;20487;-77
2023/02/21 05:09:33;;;;;;;110.18;47.78;;;9.60;99.90;;;;;;5073006;28;20107;-77
2023/02/21 05:11:58;;;;;;;106.18;45.40;;;9.60;99.90;;;;;;5089436;28;20028;-77
2023/02/21 05:14:24;;;;;;;114.07;50.80;;;9.60;99.90;;;;;;5076256;28;20112;-76
2023/02/21 05:16:50;;;;;;;91.90;43.83;;;9.50;99.90;;;;;;5069458;28;20051;-77
2023/02/21 05:19:27;;;;;;;104.57;47.08;;;9.60;99.90;;;;;;5074207;28;20066;-77
2023/02/21 05:21:57;;;;;;;97.38;46.35;;;9.60;99.90;;;;;;5072423;28;20024;-77
2023/02/21 05:24:24;;;;;;;111.22;48.28;;;9.60;99.90;;;;;;5076978;28;20364;-77
2023/02/21 05:26:50;;;;;;;118.93;54.40;;;9.60;99.90;;;;;;5078619;28;20048;-77
2023/02/21 05:29:16;;;;;;;113.07;51.15;;;9.60;99.90;;;;;;5087339;28;20126;-77
2023/02/21 05:31:42;;;;;;;119.00;53.08;;;9.70;99.90;;;;;;5087368;28;20103;-76
2023/02/21 05:34:18;;;;;;;85.47;40.15;;;9.70;99.90;;;;;;5074805;28;20194;-76
2023/02/21 05:36:44;;;;;;;93.55;44.83;;;9.70;99.90;;;;;;5076951;28;20050;-76
2023/02/21 05:39:10;;;;;;;110.97;49.97;;;9.70;99.90;;;;;;5080266;28;20020;-77
2023/02/21 05:41:36;;;;;;;96.20;46.33;;;9.70;99.90;;;;;;5085969;28;20372;-75
2023/02/21 05:44:03;;;;;;;113.65;50.28;;;9.70;99.90;;;;;;5080858;28;20036;-77
2023/02/21 05:46:34;;;;;;;119.60;53.47;;;9.70;99.90;;;;;;5078417;28;20031;-77
2023/02/21 05:49:03;;;;;;;126.88;52.42;;;9.70;99.90;;;;;;5070735;28;20017;-76
2023/02/21 05:51:36;;;;;;;116.30;50.17;;;9.70;99.90;;;;;;5073422;28;20027;-75
2023/02/21 05:54:02;;;;;;;101.35;43.63;;;9.80;99.90;;;;;;5085642;28;20100;-77
2023/02/21 05:56:28;;;;;;;118.40;51.22;;;9.80;99.90;;;;;;5088682;28;20020;-76
2023/02/21 05:58:54;;;;;;;110.65;46.55;;;9.70;99.90;;;;;;5086476;28;20021;-77
2023/02/21 06:01:19;;;;;;;126.13;52.42;;;9.70;99.90;;;;;;5080026;28;20019;-77
2023/02/21 06:03:45;;;;;;;137.20;48.30;;;9.80;99.90;;;;;;5074140;28;20026;-76
2023/02/21 06:06:10;;;;;;;127.28;50.88;;;9.80;99.90;;;;;;5079208;28;20027;-77
2023/02/21 06:08:47;;;;;;;123.47;48.17;;;9.80;99.90;;;;;;5082800;28;20046;-77
2023/02/21 06:11:13;;;;;;;89.03;40.00;;;9.70;99.90;;;;;;5079452;28;20016;-77
2023/02/21 06:13:40;;;;;;;178.88;54.58;;;9.70;99.90;;;;;;5079716;28;20082;-77
2023/02/21 06:16:06;;;;;;;135.50;50.58;;;9.70;99.90;;;;;;5075256;28;20080;-77
2023/02/21 06:18:32;;;;;;;127.47;52.75;;;9.70;99.90;;;;;;5077003;28;20557;-76
2023/02/21 06:20:57;;;;;;;112.72;44.55;;;9.70;99.90;;;;;;5073208;28;20027;-76
2023/02/21 06:23:23;;;;;;;121.35;48.15;;;9.60;99.90;;;;;;5076258;28;20877;-75
2023/02/21 06:25:48;;;;;;;153.90;55.75;;;9.70;99.90;;;;;;5077186;28;20039;-77
2023/02/21 06:28:14;;;;;;;116.78;47.95;;;9.70;99.90;;;;;;5077406;28;20149;-76
2023/02/21 06:30:40;;;;;;;134.27;52.40;;;9.70;99.90;;;;;;5077453;28;20016;-76
2023/02/21 06:33:05;;;;;;;126.18;49.28;;;9.70;99.90;;;;;;5076750;28;20617;-76
2023/02/21 06:35:31;;;;;;;114.95;46.70;;;9.80;99.90;;;;;;5077323;28;20020;-75
2023/02/21 06:37:56;;;;;;;155.10;55.90;;;9.70;99.90;;;;;;5078031;28;20036;-78
2023/02/21 06:40:22;;;;;;;119.18;49.45;;;9.80;99.90;;;;;;5077814;28;20047;-76
2023/02/21 06:42:48;;;;;;;159.07;54.53;;;9.70;99.90;;;;;;5075340;28;20107;-77
2023/02/21 06:45:16;;;;;;;133.52;49.72;;;9.70;99.90;;;;;;5079391;28;20020;-77
2023/02/21 06:47:42;;;;;;;126.97;49.70;;;9.70;99.90;;;;;;5075448;28;20028;-77
2023/02/21 06:50:08;;;;;;;117.72;49.17;;;9.70;99.90;;;;;;5070021;28;20497;-76
2023/02/21 06:52:33;;;;;;;192.18;58.42;;;9.70;99.90;;;;;;5068726;28;20021;-75
2023/02/21 06:54:59;;;;;;;153.48;54.42;;;9.70;99.90;;;;;;5086337;28;20027;-76
2023/02/21 06:57:25;;;;;;;143.77;55.38;;;9.70;99.90;;;;;;5076585;28;20028;-76
2023/02/21 06:59:52;;;;;;;151.93;55.30;;;9.70;99.90;;;;;;5080927;28;20475;-76
2023/02/21 07:02:19;;;;;;;120.97;49.33;;;9.70;99.90;;;;;;5078710;28;20029;-76
2023/02/21 07:04:46;;;;;;;164.98;55.08;;;9.70;99.90;;;;;;5074363;28;20021;-77
2023/02/21 07:07:13;;;;;;;117.50;47.75;;;9.70;99.90;;;;;;5081277;28;20039;-79
2023/02/21 07:09:38;;;;;;;200.35;60.40;;;9.60;99.90;;;;;;5077251;28;20020;-78
2023/02/21 07:12:04;;;;;;;161.32;55.60;;;9.60;99.90;;;;;;5070967;28;20439;-78
2023/02/21 07:14:30;;;;;;;130.95;50.40;;;9.60;99.90;;;;;;5082220;28;20511;-78
2023/02/21 07:16:55;;;;;;;192.32;59.00;;;9.60;99.90;;;;;;5085044;28;20052;-78
2023/02/21 07:19:21;;;;;;;180.35;61.00;;;9.70;99.90;;;;;;5080872;28;20257;-79
2023/02/21 07:21:47;;;;;;;169.95;58.40;;;9.70;99.90;;;;;;5073381;28;20028;-77
2023/02/21 07:24:12;;;;;;;209.00;61.42;;;9.50;99.90;;;;;;5087748;28;20028;-79
2023/02/21 07:26:40;;;;;;;126.55;49.17;;;9.60;99.90;;;;;;5077224;28;20032;-79
2023/02/21 07:29:06;;;;;;;171.57;57.25;;;9.60;99.90;;;;;;5068160;28;20025;-78
2023/02/21 07:31:32;;;;;;;207.27;62.70;;;9.60;99.90;;;;;;5068843;28;20117;-78
2023/02/21 07:33:59;;;;;;;209.20;64.03;;;9.60;99.90;;;;;;5076704;28;20810;-79
2023/02/21 07:36:25;;;;;;;168.82;56.33;;;9.70;99.90;;;;;;5085268;28;20077;-79
2023/02/21 07:38:51;;;;;;;145.32;52.58;;;9.70;99.90;;;;;;5077638;28;20017;-79
2023/02/21 07:41:17;;;;;;;226.38;62.80;;;9.70;99.90;;;;;;5086408;28;20024;-79
2023/02/21 07:43:43;;;;;;;196.20;63.13;;;9.60;99.90;;;;;;5080357;28;20095;-79
2023/02/21 07:46:14;;;;;;;190.85;59.72;;;9.70;99.90;;;;;;5085259;28;20103;-80
2023/02/21 07:48:40;;;;;;;214.65;62.40;;;9.70;99.90;;;;;;5081052;28;20062;-79
2023/02/21 07:51:07;;;;;;;247.50;61.33;;;9.70;99.90;;;;;;5080778;28;20626;-79
2023/02/21 07:53:34;;;;;;;360.80;71.47;;;9.70;99.90;;;;;;5085157;28;20528;-80
2023/02/21 07:56:00;;;;;;;236.55;65.03;;;9.70;99.90;;;;;;5077656;28;20048;-79
2023/02/21 07:58:27;;;;;;;184.68;57.38;;;9.70;99.90;;;;;;5081218;28;20056;-79
2023/02/21 08:00:54;;;;;;;146.82;54.05;;;9.70;99.90;;;;;;5081807;28;20021;-80
2023/02/21 08:03:20;;;;;;;172.95;54.90;;;9.70;99.90;;;;;;5073697;28;20016;-79
2023/02/21 08:05:47;;;;;;;125.40;49.72;;;9.80;99.90;;;;;;5076115;28;20020;-79
2023/02/21 08:08:15;;;;;;;155.60;52.75;;;9.70;99.90;;;;;;5072820;28;20510;-78
2023/02/21 08:10:40;;;;;;;269.55;64.13;;;9.70;99.90;;;;;;5080525;28;20070;-79
2023/02/21 08:13:06;;;;;;;443.88;71.30;;;9.60;99.90;;;;;;5077128;28;20032;-79
2023/02/21 08:15:31;;;;;;;158.18;53.65;;;9.60;99.90;;;;;;5078792;28;20040;-78
2023/02/21 08:17:57;;;;;;;172.75;53.00;;;9.60;99.90;;;;;;5073672;28;20044;-78
2023/02/21 08:20:23;;;;;;;364.30;66.53;;;9.60;99.90;;;;;;5085895;28;20024;-77
2023/02/21 08:22:48;;;;;;;189.68;54.80;;;9.60;99.90;;;;;;5085160;28;20028;-77
2023/02/21 08:25:15;;;;;;;236.07;58.30;;;9.60;99.90;;;;;;5082811;28;20443;-77
2023/02/21 08:27:42;;;;;;;524.97;76.15;;;9.60;99.90;;;;;;5092949;28;20024;-77
2023/02/21 08:30:10;;;;;;;162.07;54.55;;;9.60;99.90;;;;;;5087773;28;20019;-77
2023/02/21 08:32:36;;;;;;;253.45;62.22;;;9.60;99.90;;;;;;5083139;28;20035;-76
2023/02/21 08:35:04;;;;;;;220.13;62.25;;;9.60;99.90;;;;;;5087536;28;20021;-76
2023/02/21 08:37:32;;;;;;;270.98;61.25;;;9.60;99.90;;;;;;5075432;28;20143;-74
2023/02/21 08:39:58;;;;;;;271.27;61.70;;;9.60;99.90;;;;;;5075907;28;20166;-75
2023/02/21 08:42:25;;;;;;;176.93;51.70;;;9.60;99.90;;;;;;5074195;28;20020;-74
2023/02/21 08:44:50;;;;;;;254.18;61.85;;;9.60;99.90;;;;;;5072805;28;20024;-74
2023/02/21 08:47:17;;;;;;;174.90;55.70;;;9.60;99.90;;;;;;5077106;28;20024;-76
2023/02/21 08:49:44;;;;;;;241.23;56.15;;;9.70;99.90;;;;;;5076973;28;20025;-75
2023/02/21 08:52:10;;;;;;;205.63;56.78;;;9.70;99.90;;;;;;5076155;28;20059;-75
2023/02/21 08:54:36;;;;;;;136.43;48.17;;;9.80;99.90;;;;;;5070609;28;20075;-76
2023/02/21 08:57:01;;;;;;;151.07;50.20;;;9.80;99.90;;;;;;5072047;28;20075;-76
2023/02/21 08:59:29;;;;;;;157.65;49.85;;;9.80;99.90;;;;;;5074925;28;20502;-75
2023/02/21 09:01:55;;;;;;;150.40;51.97;;;9.80;99.90;;;;;;5087010;28;20048;-75
2023/02/21 09:04:20;;;;;;;208.77;55.35;;;9.80;99.90;;;;;;5074258;28;20438;-74
2023/02/21 09:06:46;;;;;;;157.57;53.20;;;9.70;99.90;;;;;;5074920;28;20059;-74
2023/02/21 09:09:12;;;;;;;129.55;47.35;;;9.60;99.90;;;;;;5074140;28;21254;-74
2023/02/21 09:11:37;;;;;;;117.15;45.33;;;9.70;99.90;;;;;;5085142;28;20173;-74
2023/02/21 09:14:05;;;;;;;115.15;42.47;;;9.60;99.90;;;;;;5084247;28;20367;-75
2023/02/21 09:16:31;;;;;;;114.20;42.83;;;9.70;99.90;;;;;;5077326;28;20417;-74
2023/02/21 09:18:59;;;;;;;108.32;41.20;;;9.60;99.90;;;;;;5082995;28;20082;-75
2023/02/21 09:21:25;;;;;;;125.15;44.15;;;9.70;99.90;;;;;;5083868;28;20019;-74
2023/02/21 09:23:53;;;;;;;105.63;40.33;;;9.60;99.90;;;;;;5078778;28;20024;-75
2023/02/21 09:26:22;;;;;;;113.88;43.55;;;9.60;99.90;;;;;;5082031;28;20035;-73
2023/02/21 09:28:48;;;;;;;113.10;45.60;;;9.60;99.90;;;;;;5074068;28;20032;-75
2023/02/21 09:31:14;;;;;;;106.68;41.95;;;9.70;99.90;;;;;;5070723;28;20017;-74
2023/02/21 09:33:40;;;;;;;102.40;40.50;;;9.70;99.90;;;;;;5075643;28;20080;-74
2023/02/21 09:36:07;;;;;;;96.25;38.28;;;9.70;99.90;;;;;;5084704;28;20012;-75
2023/02/21 09:38:32;;;;;;;91.10;35.13;;;9.70;99.90;;;;;;5077073;28;20043;-75
2023/02/21 09:41:02;;;;;;;79.63;35.03;;;9.70;99.90;;;;;;5069734;28;20028;-73
2023/02/21 09:43:36;;;;;;;81.30;32.53;;;9.80;99.90;;;;;;5084890;28;20494;-74
2023/02/21 09:46:08;;;;;;;84.45;34.65;;;9.80;99.90;;;;;;5076502;28;20032;-74
2023/02/21 09:48:33;;;;;;;79.43;34.25;;;9.80;99.90;;;;;;5078466;28;20070;-74
2023/02/21 09:51:04;;;;;;;81.30;35.03;;;9.80;99.90;;;;;;5077203;28;20442;-73
2023/02/21 09:53:33;;;;;;;90.35;36.05;;;9.70;99.90;;;;;;5074892;28;20044;-75
2023/02/21 09:56:12;;;;;;;84.55;36.05;;;9.70;99.90;;;;;;5082792;28;20032;-75
2023/02/21 09:58:47;;;;;;;94.70;37.20;;;9.70;99.90;;;;;;5082330;28;20092;-75
2023/02/21 10:01:50;;;;;;;92.53;37.72;;;9.70;99.90;;;;;;5081736;28;20039;-75
2023/02/21 10:04:40;;;;;;;77.90;32.92;;;9.70;99.90;;;;;;5079708;28;20536;-73
2023/02/21 10:07:18;;;;;;;89.63;37.00;;;9.70;99.90;;;;;;5068445;28;20115;-74
2023/02/21 10:10:15;;;;;;;87.93;36.10;;;9.70;99.90;;;;;;5077774;28;20386;-75
2023/02/21 10:13:05;;;;;;;93.30;41.13;;;9.60;99.90;;;;;;5079553;28;20058;-74
2023/02/21 10:16:01;;;;;;;94.55;39.15;;;9.70;99.90;;;;;;5069383;28;20056;-75
2023/02/21 10:18:39;;;;;;;93.57;38.45;;;9.80;99.90;;;;;;5076352;28;20035;-75
2023/02/21 10:21:25;;;;;;;94.85;39.90;;;9.80;99.90;;;;;;5083039;28;20435;-74
2023/02/21 10:23:56;;;;;;;98.00;41.05;;;9.80;99.90;;;;;;5071901;28;20054;-75
2023/02/21 10:26:31;;;;;;;91.72;37.85;;;9.80;99.90;;;;;;5082019;28;20032;-74
2023/02/21 10:28:59;;;;;;;89.90;38.95;;;9.90;99.90;;;;;;5080293;28;20028;-74
2023/02/21 10:31:35;;;;;;;88.35;38.67;;;9.80;99.90;;;;;;5075345;28;20020;-74
2023/02/21 10:34:06;;;;;;;85.25;36.78;;;9.90;99.90;;;;;;5081509;28;20443;-73
2023/02/21 10:36:33;;;;;;;92.15;36.88;;;9.90;99.90;;;;;;5076647;28;20029;-74
2023/02/21 10:39:13;;;;;;;89.85;37.85;;;9.80;99.90;;;;;;5073967;28;20082;-73
2023/02/21 10:41:41;;;;;;;91.95;38.83;;;9.90;99.90;;;;;;5073612;28;20028;-73
2023/02/21 10:44:14;;;;;;;87.28;38.55;;;9.90;99.90;;;;;;5073001;28;20043;-75
2023/02/21 10:46:50;;;;;;;87.32;34.83;;;9.90;99.90;;;;;;5070132;28;20033;-74
2023/02/21 10:49:42;;;;;;;78.13;34.08;;;9.90;99.90;;;;;;5078189;28;20021;-74
2023/02/21 10:52:15;;;;;;;76.68;32.75;;;10.00;99.90;;;;;;5069102;28;20116;-74
2023/02/21 10:54:57;;;;;;;85.72;37.22;;;10.00;99.90;;;;;;5072109;28;20016;-72
2023/02/21 10:57:25;;;;;;;87.47;38.00;;;9.90;99.90;;;;;;5082031;28;20062;-75
2023/02/21 10:59:51;;;;;;;70.43;30.77;;;10.00;99.90;;;;;;5074125;28;20148;-74
2023/02/21 11:02:33;;;;;;;74.68;33.17;;;10.00;99.90;;;;;;5082155;28;20048;-74
2023/02/21 11:05:15;;;;;;;87.68;39.72;;;10.00;99.90;;;;;;5072564;28;20478;-75
2023/02/21 11:07:57;;;;;;;85.72;38.72;;;10.10;99.90;;;;;;5072333;28;20059;-74
2023/02/21 11:10:41;;;;;;;84.68;37.17;;;10.10;99.90;;;;;;5072767;28;20017;-75
2023/02/21 11:13:20;;;;;;;89.30;39.78;;;10.10;99.90;;;;;;5073514;28;20115;-75
2023/02/21 11:15:47;;;;;;;85.18;38.80;;;10.00;99.90;;;;;;5074271;28;20056;-76
2023/02/21 11:18:23;;;;;;;87.57;37.85;;;10.00;99.90;;;;;;5076914;28;20585;-76
2023/02/21 11:20:52;;;;;;;78.50;34.17;;;10.00;99.90;;;;;;5077317;28;20471;-76
2023/02/21 11:23:28;;;;;;;83.72;37.60;;;10.00;99.90;;;;;;5076680;28;20047;-76
2023/02/21 11:26:06;;;;;;;82.43;37.35;;;10.10;99.90;;;;;;5077447;28;20567;-74
2023/02/21 11:28:39;;;;;;;89.22;39.67;;;10.10;99.90;;;;;;5080358;28;20141;-75
2023/02/21 11:31:22;;;;;;;72.63;31.40;;;10.10;99.90;;;;;;5087288;28;20055;-85
2023/02/21 11:33:56;;;;;;;78.85;34.83;;;10.10;99.90;;;;;;5084449;28;20059;-73
2023/02/21 11:36:31;;;;;;;66.10;31.13;;;10.10;99.90;;;;;;5075198;28;20032;-75
2023/02/21 11:39:18;;;;;;;66.65;29.80;;;10.00;99.90;;;;;;5078594;28;20040;-75
2023/02/21 11:41:50;;;;;;;65.45;29.73;;;10.00;99.90;;;;;;5091949;28;20046;-77
2023/02/21 11:44:25;;;;;;;65.88;30.20;;;10.10;99.90;;;;;;5092501;28;20047;-75
2023/02/21 11:47:17;;;;;;;62.60;26.35;;;10.10;99.90;;;;;;5092946;28;20088;-75
2023/02/21 11:49:45;;;;;;;59.78;27.00;;;10.10;99.90;;;;;;5074423;28;20028;-77
2023/02/21 11:52:17;;;;;;;59.13;26.83;;;10.00;99.90;;;;;;5088167;28;20028;-76
2023/02/21 11:54:43;;;;;;;66.32;27.67;;;9.90;99.90;;;;;;5080202;28;20466;-73
2023/02/21 11:57:28;;;;;;;51.25;23.42;;;10.10;99.90;;;;;;5075179;28;20020;-74
2023/02/21 12:00:24;;;;;;;54.45;25.67;;;10.10;99.90;;;;;;5074470;28;20031;-75
2023/02/21 12:02:56;;;;;;;54.75;25.17;;;10.20;99.90;;;;;;5087922;28;20048;-74
2023/02/21 12:05:29;;;;;;;60.20;26.48;;;10.20;99.90;;;;;;5086874;28;20033;-75
2023/02/21 12:08:41;;;;;;;55.00;24.13;;;10.20;99.90;;;;;;5084654;28;20098;-75
2023/02/21 12:11:27;;;;;;;58.03;26.92;;;10.30;99.90;;;;;;5082436;28;20039;-74
2023/02/21 12:14:47;;;;;;;;;;;;;;;;;;;;;
2023/02/21 12:17:36;;;;;;;41.55;20.10;;;10.30;99.90;;;;;;5086239;28;20108;-76
2023/02/21 12:20:09;;;;;;;46.08;19.65;;;10.20;99.90;;;;;;5089881;28;20024;-76
2023/02/21 12:22:54;;;;;;;39.60;18.83;;;10.20;99.90;;;;;;5096043;28;20029;-75
2023/02/21 12:25:51;;;;;;;45.05;19.42;;;10.20;99.90;;;;;;5098213;28;20385;-76
2023/02/21 12:28:35;;;;;;;41.53;18.15;;;10.20;99.90;;;;;;5093454;28;20103;-76
2023/02/21 12:31:31;;;;;;;35.65;16.55;;;10.30;99.90;;;;;;5090374;28;20032;-77
2023/02/21 12:34:26;;;;;;;40.15;17.25;;;10.30;99.90;;;;;;5092634;28;20039;-76
2023/02/21 12:37:18;;;;;;;38.45;17.80;;;10.20;99.90;;;;;;5082634;28;20401;-76
2023/02/21 12:39:57;;;;;;;39.25;17.60;;;10.20;99.90;;;;;;5082009;28;20061;-76
2023/02/21 12:43:04;;;;;;;30.65;14.93;;;10.20;99.90;;;;;;5079752;28;20095;-76
2023/02/21 12:45:59;;;;;;;31.00;14.48;;;10.20;99.90;;;;;;5045589;28;20036;-76
2023/02/21 12:48:44;;;;;;;34.63;16.98;;;10.20;99.90;;;;;;5083957;28;20462;-76
2023/02/21 12:51:20;;;;;;;34.13;14.98;;;10.20;99.90;;;;;;5094185;28;20100;-76
2023/02/21 12:54:02;;;;;;;32.90;15.30;;;10.20;99.90;;;;;;5082911;28;20049;-76
2023/02/21 12:56:35;;;;;;;33.47;14.75;;;10.20;99.90;;;;;;5090618;28;20028;-77
2023/02/21 12:59:23;;;;;;;36.17;16.83;;;10.20;99.90;;;;;;5084877;28;20059;-77
2023/02/21 13:01:55;;;;;;;34.25;15.48;;;10.20;99.90;;;;;;5080174;28;20471;-77
2023/02/21 13:04:47;;;;;;;30.60;14.07;;;10.30;99.90;;;;;;5082983;28;20063;-75
2023/02/21 13:07:24;;;;;;;37.85;18.10;;;10.30;99.90;;;;;;5042478;28;20158;-74
2023/02/21 13:10:12;;;;;;;35.83;17.38;;;10.30;99.90;;;;;;5096974;28;20020;-75
2023/02/21 13:13:11;;;;;;;33.67;16.02;;;10.20;99.90;;;;;;5077470;28;20471;-75
2023/02/21 13:15:39;;;;;;;31.55;16.27;;;10.30;99.90;;;;;;5065427;28;20090;-76
2023/02/21 13:18:31;;;;;;;34.10;15.88;;;10.20;99.90;;;;;;5091741;28;20050;-76
2023/02/21 13:21:29;;;;;;;33.47;15.32;;;10.20;99.90;;;;;;5090433;28;20032;-76
2023/02/21 13:23:59;;;;;;;33.55;15.98;;;10.20;99.90;;;;;;5086452;28;20070;-76
2023/02/21 13:26:43;;;;;;;35.35;16.40;;;10.20;99.90;;;;;;5095541;28;20017;-76
2023/02/21 13:29:17;;;;;;;32.33;15.68;;;10.30;99.90;;;;;;5078908;28;20032;-75
2023/02/21 13:31:44;;;;;;;37.58;17.00;;;10.40;99.90;;;;;;5081758;28;20025;-75
2023/02/21 13:34:13;;;;;;;37.33;17.38;;;10.40;99.90;;;;;;5077417;28;20390;-76
2023/02/21 13:36:40;;;;;;;32.30;16.73;;;10.50;99.90;;;;;;5078532;28;20475;-75
2023/02/21 13:39:14;;;;;;;35.45;17.90;;;10.50;99.90;;;;;;5089753;28;20050;-75
2023/02/21 13:41:50;;;;;;;36.80;17.60;;;10.60;99.90;;;;;;5090166;28;20035;-76
2023/02/21 13:44:25;;;;;;;31.50;17.17;;;10.50;99.90;;;;;;5095725;28;21593;-75
2023/02/21 13:46:50;;;;;;;38.80;18.88;;;10.50;99.90;;;;;;5091962;28;20035;-75
2023/02/21 13:49:41;;;;;;;37.47;18.42;;;10.40;99.90;;;;;;5083504;28;20025;-75
2023/02/21 13:52:21;;;;;;;36.17;18.85;;;10.40;99.90;;;;;;5089007;28;20030;-75
2023/02/21 13:55:16;;;;;;;36.67;17.38;;;10.40;99.90;;;;;;5080640;28;20084;-75
2023/02/21 13:57:57;;;;;;;36.55;18.38;;;10.50;99.90;;;;;;5096688;28;20059;-76
2023/02/21 14:00:26;;;;;;;;;;;10.50;99.90;;;;;;5097086;28;20479;-76
2023/02/21 14:03:01;;;;;;;44.83;18.50;;;10.60;99.90;;;;;;5080460;28;20044;-76
2023/02/21 14:05:52;;;;;;;40.78;19.48;;;10.50;99.90;;;;;;5087202;28;20792;-76
2023/02/21 14:08:31;;;;;;;38.08;17.80;;;10.50;99.90;;;;;;5064746;28;20048;-75
2023/02/21 14:11:11;;;;;;;36.03;16.45;;;10.50;99.90;;;;;;5084649;28;20031;-76
2023/02/21 14:13:39;;;;;;;40.65;18.75;;;10.50;99.90;;;;;;5094124;28;20032;-75
2023/02/21 14:16:14;;;;;;;40.33;19.00;;;10.50;99.90;;;;;;5089529;28;20082;-77
2023/02/21 14:19:04;;;;;;;39.40;19.25;;;10.50;99.90;;;;;;5089421;28;20127;-75
2023/02/21 14:21:32;;;;;;;41.53;19.83;;;10.50;99.90;;;;;;5091339;28;20039;-76
2023/02/21 14:24:20;;;;;;;39.83;19.93;;;10.50;99.90;;;;;;5085333;28;20071;-76
2023/02/21 14:26:51;;;;;;;44.03;20.42;;;10.50;99.90;;;;;;5088403;28;20062;-75
2023/02/21 14:29:29;;;;;;;40.50;19.70;;;10.50;99.90;;;;;;5098795;28;20048;-76
2023/02/21 14:32:00;;;;;;;43.13;20.75;;;10.50;99.90;;;;;;5087479;28;20036;-76
2023/02/21 14:34:46;;;;;;;45.78;20.23;;;10.40;99.90;;;;;;5075936;28;20027;-75
2023/02/21 14:37:18;;;;;;;49.50;21.05;;;10.40;99.90;;;;;;5084075;28;20054;-75
2023/02/21 14:39:47;;;;;;;45.13;19.83;;;10.40;99.90;;;;;;5089861;28;20026;-76
2023/02/21 14:42:28;;;;;;;44.53;20.27;;;10.40;99.90;;;;;;5083420;28;20028;-75
2023/02/21 14:45:13;;;;;;;42.05;19.75;;;10.40;99.90;;;;;;5086141;28;20074;-75
2023/02/21 14:48:08;;;;;;;46.47;21.00;;;10.40;99.90;;;;;;5081660;28;20023;-74
2023/02/21 14:50:52;;;;;;;47.15;21.30;;;10.40;99.90;;;;;;5075411;28;20500;-75
2023/02/21 14:54:18;;;;;;;45.20;21.55;;;10.40;99.90;;;;;;5082983;28;20021;-75
2023/02/21 14:56:55;;;;;;;47.38;22.58;;;10.50;99.90;;;;;;5054498;28;20029;-75
2023/02/21 14:59:43;;;;;;;51.20;22.65;;;10.50;99.90;;;;;;5076643;28;20032;-74
2023/02/21 15:02:24;;;;;;;50.35;23.35;;;10.50;99.90;;;;;;5076893;28;20892;-74
2023/02/21 15:04:57;;;;;;;49.92;23.58;;;10.60;99.90;;;;;;5070336;28;20025;-74
2023/02/21 15:07:41;;;;;;;56.20;25.35;;;10.60;99.90;;;;;;5071351;28;20409;-74
2023/02/21 15:10:16;;;;;;;51.75;23.45;;;10.60;99.90;;;;;;5087576;28;20080;-74
2023/02/21 15:12:57;;;;;;;55.08;25.67;;;10.50;99.90;;;;;;5084574;28;20028;-73
2023/02/21 15:15:31;;;;;;;57.10;26.08;;;10.50;99.90;;;;;;5077271;28;20127;-74
2023/02/21 15:18:12;;;;;;;55.92;27.02;;;10.60;99.90;;;;;;5071797;28;20033;-74